Terminal Aerodrome Forecast
Issued by NWS Wilmington, OH

Current Version | Previous Version | Graphics & Text | Print | Product List | Glossary On
Versions: 1 2 3 4 5 6 7 8 9 10 11 12 13 14 15 16 17 18 19 20 21 22 23 24 25 26 27 28 29 30 31 32 33 34 35
000
FTUS41 KILN 241100 RRA
TAFCVG
TAF
KCVG 241140Z 2412/2518 19016G26KT P6SM VCSH SCT015 OVC022
      TEMPO 2413/2415 24020G30KT 5SM -SHRA BR OVC015
     FM241700 24020G30KT P6SM OVC025
     FM250000 24012G22KT P6SM BKN030
     FM250500 25011KT P6SM SCT035
     FM251300 26010KT P6SM SCT025
      TEMPO 2515/2518 BKN025=

USA.gov is the U.S. government's official web portal to all federal, state and local government web resources and services.